Time;durP1;ratioP1;P1;durP2;ratioP2;P2;SDS_P1;SDS_P2;PMS_P1;PMS_P2;Temp;Humidity;BMP_temperature;BMP_pressure;BME280_temperature;BME280_humidity;BME280_pressure;Samples;Min_cycle;Max_cycle;Signal;HPM_P1;HPM_P2
2022/07/10 00:00:55;;;;;;;;;10.67;10.67;;;;;22.09;51.33;100836.87;110068;1264;18833;-64
2022/07/10 00:03:23;;;;;;;;;10.00;10.00;;;;;22.08;51.26;100833.98;110175;1265;22930;-66
2022/07/10 00:05:50;;;;;;;;;11.00;10.33;;;;;22.07;51.29;100829.38;110205;1265;19597;-65
2022/07/10 00:08:18;;;;;;;;;10.00;9.00;;;;;22.04;51.48;100827.46;110213;1265;18874;-65
2022/07/10 00:10:45;;;;;;;;;11.00;11.00;;;;;22.06;51.30;100829.47;110121;1265;20138;-64
2022/07/10 00:13:12;;;;;;;;;10.00;10.00;;;;;22.06;51.23;100822.93;110152;1265;21097;-64
2022/07/10 00:15:39;;;;;;;;;10.00;9.67;;;;;22.05;50.93;100820.86;110217;1265;19149;-66
2022/07/10 00:18:06;;;;;;;;;10.00;10.00;;;;;22.03;51.31;100817.83;110204;1265;18958;-66
2022/07/10 00:20:35;;;;;;;;;11.00;10.00;;;;;22.02;50.98;100824.15;110115;1265;19607;-65
2022/07/10 00:23:02;;;;;;;;;10.00;10.00;;;;;22.00;51.14;100827.27;110235;1265;19014;-66
2022/07/10 00:25:30;;;;;;;;;9.00;9.00;;;;;21.98;51.01;100825.16;110061;1264;18894;-66
2022/07/10 00:27:57;;;;;;;;;9.67;9.00;;;;;21.97;50.84;100825.45;110212;1265;21266;-65
2022/07/10 00:30:24;;;;;;;;;9.00;9.00;;;;;21.95;50.94;100826.80;110191;1265;22094;-67
2022/07/10 00:32:52;;;;;;;;;7.00;7.00;;;;;21.93;51.08;100823.60;110208;1265;18831;-65
2022/07/10 00:35:19;;;;;;;;;10.67;10.00;;;;;21.93;50.99;100827.55;110193;1265;19416;-66
2022/07/10 00:37:47;;;;;;;;;9.00;9.00;;;;;21.92;50.84;100826.27;110202;1267;18497;-66
2022/07/10 00:40:14;;;;;;;;;9.33;9.00;;;;;21.91;50.86;100820.31;110216;1265;23540;-65
2022/07/10 00:42:41;;;;;;;;;11.33;9.67;;;;;21.90;50.72;100813.45;110196;1265;30193;-65
2022/07/10 00:45:09;;;;;;;;;9.00;9.00;;;;;21.88;50.64;100817.95;110230;1265;18531;-65
2022/07/10 00:47:36;;;;;;;;;9.33;9.00;;;;;21.86;50.51;100812.66;110158;1265;18812;-65
2022/07/10 00:50:03;;;;;;;;;7.67;7.00;;;;;21.87;50.34;100815.95;110180;1265;19488;-63
2022/07/10 00:52:30;;;;;;;;;10.00;9.00;;;;;21.86;50.44;100813.79;110182;1265;18607;-63
2022/07/10 00:54:58;;;;;;;;;9.00;9.00;;;;;21.83;50.44;100813.64;110178;1265;21310;-63
2022/07/10 00:57:25;;;;;;;;;7.67;7.00;;;;;21.80;50.47;100809.41;110227;1265;19698;-64
2022/07/10 00:59:52;;;;;;;;;7.67;7.67;;;;;21.80;50.25;100809.23;110206;1265;18588;-64
2022/07/10 01:02:20;;;;;;;;;7.00;7.00;;;;;21.81;50.38;100809.13;110201;1264;18709;-66
2022/07/10 01:04:47;;;;;;;;;7.00;7.00;;;;;21.82;50.56;100802.82;110244;1264;19482;-66
2022/07/10 01:07:15;;;;;;;;;7.00;6.00;;;;;21.81;50.55;100800.77;110224;1265;19115;-66
2022/07/10 01:09:43;;;;;;;;;6.33;6.33;;;;;21.82;50.44;100789.98;110186;1265;19040;-66
2022/07/10 01:12:10;;;;;;;;;6.00;6.00;;;;;21.84;50.49;100788.07;110235;1265;19666;-66
2022/07/10 01:14:37;;;;;;;;;7.00;6.67;;;;;21.84;50.32;100786.40;110173;1265;18335;-66
2022/07/10 01:17:05;;;;;;;;;6.00;6.00;;;;;21.85;50.49;100785.98;110227;1264;18789;-65
2022/07/10 01:19:32;;;;;;;;;6.00;6.00;;;;;21.87;50.40;100783.70;110230;1265;19616;-66
2022/07/10 01:21:59;;;;;;;;;6.00;6.00;;;;;21.89;50.66;100778.97;110118;1263;18545;-67
2022/07/10 01:24:26;;;;;;;;;5.00;5.00;;;;;21.91;50.27;100778.56;110176;1265;18772;-65
2022/07/10 01:26:54;;;;;;;;;6.50;6.00;;;;;21.90;50.29;100777.67;110082;1265;19589;-66
2022/07/10 01:29:21;;;;;;;;;6.67;6.33;;;;;21.91;50.45;100781.39;110202;1265;18464;-66
2022/07/10 01:31:48;;;;;;;;;5.00;5.00;;;;;21.91;50.34;100786.17;110233;1265;20607;-66
2022/07/10 01:34:15;;;;;;;;;6.00;5.00;;;;;21.88;50.40;100786.70;110183;1265;19812;-66
2022/07/10 01:36:43;;;;;;;;;6.00;6.00;;;;;21.85;50.40;100788.30;110218;1264;18477;-66
2022/07/10 01:39:10;;;;;;;;;6.67;6.67;;;;;21.82;50.41;100780.27;110242;1265;18801;-65
2022/07/10 01:41:37;;;;;;;;;7.00;6.00;;;;;21.81;50.40;100779.08;110249;1264;19818;-65
2022/07/10 01:44:04;;;;;;;;;5.00;5.00;;;;;21.81;50.49;100776.45;110315;1264;22797;-66
2022/07/10 01:46:32;;;;;;;;;6.33;6.00;;;;;21.80;50.24;100773.42;110221;1265;18797;-65
2022/07/10 01:48:59;;;;;;;;;6.00;6.00;;;;;21.79;50.22;100770.55;110243;1265;19376;-66
2022/07/10 01:51:26;;;;;;;;;10.00;6.00;;;;;21.78;50.53;100769.66;110203;1264;18506;-66
2022/07/10 01:53:53;;;;;;;;;6.00;6.00;;;;;21.79;50.42;100771.73;110209;1265;18892;-67
2022/07/10 01:56:21;;;;;;;;;6.00;6.00;;;;;21.79;50.30;100771.98;110120;1265;19863;-65
2022/07/10 01:58:48;;;;;;;;;5.00;5.00;;;;;21.62;50.58;100770.36;110200;1264;22226;-65
2022/07/10 02:01:15;;;;;;;;;6.00;5.00;;;;;21.53;50.90;100766.98;110193;1265;22799;-64
2022/07/10 02:06:27;;;;;;;;;5.00;5.00;;;;;21.66;50.76;100759.67;110143;1265;18591;-61
2022/07/10 02:08:55;;;;;;;;;4.33;3.00;;;;;21.69;50.57;100757.11;110210;1265;18722;-63
2022/07/10 02:11:22;;;;;;;;;3.33;3.33;;;;;21.72;50.53;100759.23;110204;1265;19506;-66
2022/07/10 02:13:50;;;;;;;;;6.00;5.00;;;;;21.72;50.67;100752.30;110236;1265;21888;-65
2022/07/10 02:16:17;;;;;;;;;3.00;3.00;;;;;21.73;50.59;100749.80;110231;1265;18598;-67
2022/07/10 02:18:44;;;;;;;;;6.00;5.33;;;;;21.73;50.53;100755.34;110223;1265;19477;-64
2022/07/10 02:21:12;;;;;;;;;5.00;5.00;;;;;21.74;50.25;100753.59;110220;1265;18539;-66
2022/07/10 02:23:40;;;;;;;;;5.00;5.00;;;;;21.74;50.43;100752.88;110205;1265;19039;-65
2022/07/10 02:26:08;;;;;;;;;5.00;5.00;;;;;21.76;50.42;100748.81;110272;1265;22060;-65
2022/07/10 02:28:35;;;;;;;;;5.00;3.00;;;;;21.76;50.71;100751.50;110191;1264;18707;-67
2022/07/10 02:31:02;;;;;;;;;5.67;5.00;;;;;21.79;50.52;100751.58;110179;1265;20121;-65
2022/07/10 02:33:29;;;;;;;;;5.00;4.33;;;;;21.80;50.45;100751.09;110214;1264;19627;-65
2022/07/10 02:35:57;;;;;;;;;3.00;3.00;;;;;21.78;50.57;100748.92;110185;1264;18462;-66
2022/07/10 02:38:24;;;;;;;;;5.00;5.00;;;;;21.77;50.61;100750.48;110194;1265;18838;-64
2022/07/10 02:40:51;;;;;;;;;5.00;5.00;;;;;21.82;50.47;100743.54;110232;1264;19549;-64
2022/07/10 02:43:19;;;;;;;;;4.33;3.00;;;;;21.86;50.33;100741.92;110208;1264;18610;-66
2022/07/10 02:45:46;;;;;;;;;4.00;3.67;;;;;21.88;50.45;100739.00;110176;1265;18816;-64
2022/07/10 02:48:13;;;;;;;;;5.00;5.00;;;;;21.88;50.35;100736.33;110201;1265;19780;-65
2022/07/10 02:50:40;;;;;;;;;3.00;3.00;;;;;21.90;50.34;100732.84;110190;1265;18629;-66
2022/07/10 02:53:08;;;;;;;;;5.00;5.00;;;;;21.93;50.46;100728.57;110345;1265;22915;-66
2022/07/10 02:55:35;;;;;;;;;4.33;4.33;;;;;21.97;50.28;100729.96;110224;1265;19886;-66
2022/07/10 02:58:03;;;;;;;;;5.00;3.67;;;;;21.94;50.19;100726.40;110246;1265;18693;-68
2022/07/10 03:00:30;;;;;;;;;5.00;5.00;;;;;21.92;50.48;100728.33;110209;1265;18719;-66
2022/07/10 03:02:57;;;;;;;;;5.00;5.00;;;;;21.91;50.56;100727.73;110263;1264;22898;-67
2022/07/10 03:05:25;;;;;;;;;3.00;3.00;;;;;21.91;50.81;100729.07;110173;1264;18606;-66
2022/07/10 03:07:52;;;;;;;;;6.00;6.00;;;;;21.89;50.58;100723.98;110227;1265;18807;-66
2022/07/10 03:10:19;;;;;;;;;9.00;7.00;;;;;21.85;50.80;100723.86;110165;1264;21772;-66
2022/07/10 03:12:47;;;;;;;;;5.00;5.00;;;;;21.82;50.86;100719.12;110213;1264;18485;-67
2022/07/10 03:15:14;;;;;;;;;6.00;5.00;;;;;21.80;50.97;100719.61;110229;1265;20572;-66
2022/07/10 03:17:42;;;;;;;;;5.33;5.00;;;;;21.76;51.04;100720.14;110176;1264;19890;-61
2022/07/10 03:20:09;;;;;;;;;5.67;5.67;;;;;21.70;51.11;100718.77;110206;1265;18691;-63
2022/07/10 03:22:36;;;;;;;;;5.00;5.00;;;;;21.69;51.05;100718.73;110156;1265;18886;-64
2022/07/10 03:25:28;;;;;;;;;3.00;3.00;;;;;21.72;50.91;100719.32;110147;1265;19535;-64
2022/07/10 03:28:19;;;;;;;;;5.00;5.00;;;;;21.70;51.11;100722.47;110150;1264;18479;-66
2022/07/10 03:31:10;;;;;;;;;7.00;7.00;;;;;21.72;50.80;100722.63;110108;1265;18667;-65
2022/07/10 03:34:01;;;;;;;;;10.00;9.00;;;;;21.74;51.00;100729.80;110130;1267;23468;-66
2022/07/10 03:36:52;;;;;;;;;7.33;7.00;;;;;21.72;50.85;100730.57;110124;1267;23054;-65
2022/07/10 03:39:44;;;;;;;;;10.00;9.00;;;;;21.65;51.07;100732.02;110132;1265;18904;-65
2022/07/10 03:42:36;;;;;;;;;8.67;7.33;;;;;21.67;51.23;100730.98;110076;1265;19625;-65
2022/07/10 03:45:27;;;;;;;;;5.00;5.00;;;;;21.68;50.97;100734.55;110103;1266;18765;-65
2022/07/10 03:48:18;;;;;;;;;5.67;5.67;;;;;21.61;51.47;100732.77;110125;1264;18756;-66
2022/07/10 03:51:09;;;;;;;;;5.00;5.00;;;;;21.62;51.60;100729.80;110111;1265;19522;-64
2022/07/10 03:54:00;;;;;;;;;5.50;5.50;;;;;21.61;51.43;100728.98;110154;1265;18611;-66
2022/07/10 04:00:01;;;;;;;;;6.00;6.00;;;;;21.56;51.97;100723.40;110049;1265;22855;-64
2022/07/10 04:02:53;;;;;;;;;5.00;5.00;;;;;21.52;51.93;100725.27;110020;1265;18498;-65
2022/07/10 04:05:44;;;;;;;;;5.00;5.00;;;;;21.53;52.00;100730.40;109943;1268;18791;-65
2022/07/10 04:08:36;;;;;;;;;5.00;5.00;;;;;21.55;52.14;100728.80;110052;1267;19561;-64
2022/07/10 04:11:27;;;;;;;;;8.00;6.00;;;;;21.55;52.08;100730.23;110056;1265;18426;-63
2022/07/10 04:14:18;;;;;;;;;5.00;5.00;;;;;21.56;52.05;100729.73;110052;1265;23058;-67
2022/07/10 04:17:09;;;;;;;;;4.00;4.00;;;;;21.57;52.03;100726.66;110105;1265;19530;-65
2022/07/10 04:20:00;;;;;;;;;4.67;4.67;;;;;21.55;51.95;100723.42;110044;1264;18587;-66
2022/07/10 04:22:52;;;;;;;;;6.00;6.00;;;;;21.64;51.82;100724.45;110060;1265;23223;-65
2022/07/10 04:25:44;;;;;;;;;6.00;6.00;;;;;21.66;51.88;100726.01;110078;1267;19538;-65
2022/07/10 04:28:35;;;;;;;;;8.67;8.67;;;;;21.66;51.87;100724.08;110060;1265;18489;-66
2022/07/10 04:31:26;;;;;;;;;6.00;6.00;;;;;21.71;51.64;100720.27;110091;1265;18754;-67
2022/07/10 04:34:18;;;;;;;;;6.00;6.00;;;;;21.69;51.94;100717.13;110121;1264;23947;-65
2022/07/10 04:37:09;;;;;;;;;6.00;5.67;;;;;21.65;52.12;100709.78;110122;1265;18466;-65
2022/07/10 04:40:01;;;;;;;;;5.50;5.50;;;;;21.60;51.98;100708.77;110083;1264;18851;-66
2022/07/10 04:42:53;;;;;;;;;5.00;5.00;;;;;21.63;52.13;100703.38;110090;1264;19632;-66
2022/07/10 04:45:45;;;;;;;;;5.00;5.00;;;;;21.67;52.22;100702.90;110089;1267;23476;-65
2022/07/10 04:48:36;;;;;;;;;6.67;5.33;;;;;21.64;52.11;100697.26;110191;1264;23121;-66
2022/07/10 04:51:27;;;;;;;;;4.00;4.00;;;;;21.50;52.48;100697.71;110150;1264;19538;-66
2022/07/10 04:54:18;;;;;;;;;6.00;5.00;;;;;21.51;52.31;100694.86;110119;1264;19045;-66
2022/07/10 04:57:09;;;;;;;;;4.50;4.50;;;;;21.48;52.55;100690.84;110195;1265;22106;-66
2022/07/10 05:00:00;;;;;;;;;5.67;5.67;;;;;21.53;52.56;100686.67;110146;1264;19630;-66
2022/07/10 05:02:52;;;;;;;;;5.00;4.50;;;;;21.54;52.42;100687.66;110066;1265;18568;-66
2022/07/10 05:05:44;;;;;;;;;5.00;5.00;;;;;21.58;52.47;100684.99;110109;1265;19039;-66
2022/07/10 05:08:36;;;;;;;;;5.00;5.00;;;;;21.50;52.82;100690.07;110193;1264;20353;-66
2022/07/10 05:11:28;;;;;;;;;4.00;4.00;;;;;21.53;52.55;100691.34;110194;1265;18544;-63
2022/07/10 05:14:20;;;;;;;;;5.67;5.00;;;;;21.52;52.52;100687.30;110175;1264;21708;-64
2022/07/10 05:17:12;;;;;;;;;5.67;5.00;;;;;21.51;52.72;100691.42;110197;1264;23970;-64
2022/07/10 05:20:04;;;;;;;;;4.00;4.00;;;;;21.51;52.60;100697.77;110231;1264;22723;-65
2022/07/10 05:22:56;;;;;;;;;4.67;4.67;;;;;21.57;52.53;100698.91;110208;1264;18776;-65
2022/07/10 05:25:47;;;;;;;;;8.50;5.00;;;;;21.54;52.62;100700.52;110129;1264;23738;-65
2022/07/10 05:28:15;;;;;;;;;5.00;5.00;;;;;21.36;52.98;100704.07;110155;1264;18876;-62
2022/07/10 05:30:42;;;;;;;;;6.00;6.00;;;;;21.01;53.61;100706.64;110240;1265;18805;-64
2022/07/10 05:33:09;;;;;;;;;5.67;5.67;;;;;21.01;53.99;100704.38;110187;1264;19621;-65
2022/07/10 05:35:37;;;;;;;;;9.33;6.67;;;;;21.04;53.97;100711.19;110188;1265;18534;-65
2022/07/10 05:38:04;;;;;;;;;6.00;6.00;;;;;21.11;53.64;100706.00;110157;1264;22882;-64
2022/07/10 05:40:31;;;;;;;;;6.00;6.00;;;;;21.25;53.39;100706.55;110218;1265;19636;-65
2022/07/10 05:42:58;;;;;;;;;6.00;6.00;;;;;21.29;53.09;100703.93;110079;1264;18447;-66
2022/07/10 05:45:26;;;;;;;;;5.00;5.00;;;;;21.40;53.10;100704.23;110167;1265;18947;-64
2022/07/10 05:47:53;;;;;;;;;5.33;5.33;;;;;21.44;52.83;100701.41;110220;1265;19455;-65
2022/07/10 05:50:20;;;;;;;;;7.00;7.00;;;;;21.53;52.88;100697.89;110182;1264;18524;-66
2022/07/10 05:52:47;;;;;;;;;6.50;6.00;;;;;21.48;53.63;100690.88;110303;1264;18872;-66
2022/07/10 05:55:15;;;;;;;;;9.00;6.33;;;;;21.32;54.07;100700.20;110180;1265;21934;-64
2022/07/10 05:57:42;;;;;;;;;6.00;6.00;;;;;21.33;54.10;100701.27;110192;1264;22831;-63
2022/07/10 06:00:09;;;;;;;;;3.67;3.67;;;;;21.47;53.75;100699.67;110177;1264;19175;-64
2022/07/10 06:02:37;;;;;;;;;5.00;5.00;;;;;21.57;53.02;100703.03;110244;1265;19697;-63
2022/07/10 06:05:04;;;;;;;;;3.00;3.00;;;;;21.68;53.01;100700.52;110172;1265;18590;-64
2022/07/10 06:07:31;;;;;;;;;5.00;4.67;;;;;21.72;52.68;100705.13;110150;1265;18896;-64
2022/07/10 06:09:58;;;;;;;;;6.67;6.67;;;;;21.77;52.60;100708.11;110202;1264;20674;-66
2022/07/10 06:12:26;;;;;;;;;5.33;5.33;;;;;21.60;53.00;100707.14;110211;1264;18433;-65
2022/07/10 06:14:53;;;;;;;;;5.00;5.00;;;;;21.66;53.06;100706.71;110031;1264;18799;-65
2022/07/10 06:17:21;;;;;;;;;6.00;5.00;;;;;21.94;52.50;100709.05;110168;1264;20557;-66
2022/07/10 06:19:48;;;;;;;;;5.00;5.00;;;;;22.14;51.94;100707.51;110062;1268;18654;-65
2022/07/10 06:22:31;;;;;;;;;6.00;6.00;;;;;22.24;51.67;100707.50;110230;1264;19063;-65
2022/07/10 06:24:58;;;;;;;;;5.00;5.00;;;;;22.34;51.69;100704.88;110145;1264;19656;-64
2022/07/10 06:27:26;;;;;;;;;5.67;5.67;;;;;22.40;51.53;100702.89;110190;1264;22236;-64
2022/07/10 06:29:53;;;;;;;;;5.33;3.67;;;;;22.42;51.41;100699.55;110146;1264;18754;-64
2022/07/10 06:32:20;;;;;;;;;6.00;6.00;;;;;22.28;51.57;100703.30;110209;1264;19855;-67
2022/07/10 06:34:47;;;;;;;;;7.00;6.67;;;;;22.35;52.44;100698.03;110146;1265;18478;-64
2022/07/10 06:37:15;;;;;;;;;8.33;7.00;;;;;22.49;52.96;100696.52;110212;1265;18846;-64
2022/07/10 06:39:42;;;;;;;;;5.00;4.33;;;;;22.62;53.44;100702.19;110154;1265;19643;-62
2022/07/10 06:42:09;;;;;;;;;7.00;7.00;;;;;22.68;53.12;100695.58;110215;1264;20021;-65
2022/07/10 06:44:37;;;;;;;;;6.50;6.00;;;;;22.71;52.95;100696.88;110230;1264;19028;-67
2022/07/10 06:49:49;;;;;;;;;7.00;6.00;;;;;22.85;53.03;100696.14;110222;1264;18696;-64
2022/07/10 06:52:17;;;;;;;;;5.00;5.00;;;;;22.87;53.02;100696.33;110193;1265;18832;-65
2022/07/10 06:54:44;;;;;;;;;5.67;5.67;;;;;22.86;52.49;100692.27;110180;1265;19641;-65
2022/07/10 06:57:11;;;;;;;;;5.00;5.00;;;;;22.89;52.43;100690.58;110286;1264;18835;-64
2022/07/10 06:59:39;;;;;;;;;5.33;5.00;;;;;22.92;52.15;100681.45;110163;1265;18661;-65
2022/07/10 07:02:06;;;;;;;;;5.67;5.67;;;;;22.90;52.24;100688.23;110238;1265;19368;-65
2022/07/10 07:04:33;;;;;;;;;7.00;7.00;;;;;22.87;52.30;100685.73;110202;1265;18615;-66
2022/07/10 07:07:00;;;;;;;;;6.33;6.33;;;;;22.89;51.99;100683.82;110159;1264;22951;-66
2022/07/10 07:09:28;;;;;;;;;5.00;5.00;;;;;22.91;51.71;100686.36;110194;1265;21222;-66
2022/07/10 07:11:55;;;;;;;;;3.00;3.00;;;;;22.91;51.67;100686.56;110147;1265;18961;-65
2022/07/10 07:14:22;;;;;;;;;6.00;5.00;;;;;22.95;51.73;100686.77;110214;1264;20052;-66
2022/07/10 07:16:58;;;;;;;;;9.00;5.00;;;;;22.96;51.24;100687.67;110126;1264;19468;-63
2022/07/10 07:19:31;;;;;;;;;5.00;5.00;;;;;22.99;51.51;100686.07;110242;1264;18686;-63
2022/07/10 07:24:44;;;;;;;;;6.33;6.33;;;;;22.88;50.03;100693.11;110223;1264;20009;-63
2022/07/10 07:27:11;;;;;;;;;10.50;10.00;;;;;22.61;50.31;100693.64;110188;1264;22197;-60
2022/07/10 07:29:39;;;;;;;;;9.00;9.00;;;;;22.60;50.50;100699.44;110192;1264;18997;-63
2022/07/10 07:32:06;;;;;;;;;6.00;6.00;;;;;22.75;50.47;100695.79;110214;1265;21114;-64
2022/07/10 07:34:33;;;;;;;;;6.33;6.33;;;;;22.85;50.40;100694.00;110207;1264;18624;-62
2022/07/10 07:37:00;;;;;;;;;6.00;6.00;;;;;22.92;50.69;100693.64;110212;1264;18890;-61
2022/07/10 07:39:28;;;;;;;;;5.50;5.50;;;;;22.97;50.69;100688.36;110177;1264;23980;-64
2022/07/10 07:41:55;;;;;;;;;7.00;6.00;;;;;22.99;50.78;100688.13;109690;1264;738395;-64
2022/07/10 07:44:22;;;;;;;;;7.00;7.00;;;;;23.03;50.14;100685.11;110274;1264;21061;-62
2022/07/10 07:46:49;;;;;;;;;6.00;6.00;;;;;23.10;49.81;100684.50;110200;1267;19811;-64
2022/07/10 07:49:16;;;;;;;;;5.67;5.67;;;;;23.13;49.32;100684.80;110206;1265;18520;-65
2022/07/10 07:51:44;;;;;;;;;7.00;6.33;;;;;23.12;49.09;100690.88;110205;1264;18823;-64
2022/07/10 07:54:11;;;;;;;;;7.00;6.50;;;;;23.11;49.14;100685.10;110124;1265;19511;-64
2022/07/10 07:56:38;;;;;;;;;9.00;7.67;;;;;23.01;48.86;100686.66;110169;1265;18537;-64
2022/07/10 07:59:06;;;;;;;;;9.67;9.00;;;;;22.65;49.03;100686.33;110247;1265;18745;-63
2022/07/10 08:01:33;;;;;;;;;7.67;7.67;;;;;22.47;49.30;100684.55;110209;1265;19515;-64
2022/07/10 08:04:00;;;;;;;;;9.00;9.00;;;;;22.34;49.44;100687.90;110265;1265;19117;-63
2022/07/10 08:06:27;;;;;;;;;7.00;6.00;;;;;22.28;49.78;100683.57;110238;1264;21427;-65
2022/07/10 08:08:55;;;;;;;;;9.00;7.00;;;;;22.23;49.82;100690.19;110199;1265;19578;-64
2022/07/10 08:11:22;;;;;;;;;9.00;7.00;;;;;22.17;49.95;100685.34;110295;1264;18609;-66
2022/07/10 08:13:50;;;;;;;;;7.00;7.00;;;;;22.18;50.23;100693.39;110236;1264;18680;-64
2022/07/10 08:16:17;;;;;;;;;7.00;7.00;;;;;22.17;50.32;100692.36;110215;1265;22720;-65
2022/07/10 08:18:44;;;;;;;;;6.00;6.00;;;;;22.14;50.68;100692.91;110200;1264;22954;-65
2022/07/10 08:21:11;;;;;;;;;7.00;7.00;;;;;22.12;50.57;100691.87;110195;1267;22661;-63
2022/07/10 08:23:39;;;;;;;;;6.67;6.67;;;;;22.20;50.77;100692.10;110177;1267;19950;-64
2022/07/10 08:26:06;;;;;;;;;7.00;7.00;;;;;22.22;50.88;100693.77;110220;1267;22363;-64
2022/07/10 08:28:33;;;;;;;;;11.00;7.00;;;;;22.28;50.77;100693.61;110178;1264;19045;-64
2022/07/10 08:31:01;;;;;;;;;11.67;11.00;;;;;22.35;50.61;100691.32;110208;1264;22274;-63
2022/07/10 08:33:28;;;;;;;;;13.67;13.33;;;;;22.23;50.67;100687.27;110255;1264;18815;-65
2022/07/10 08:35:58;;;;;;;;;12.33;11.00;;;;;22.34;50.54;100686.98;110176;1265;18851;-65
2022/07/10 08:38:26;;;;;;;;;11.67;11.67;;;;;22.54;50.25;100680.69;110222;1264;19801;-66
2022/07/10 08:40:53;;;;;;;;;17.67;14.67;;;;;22.72;49.97;100684.50;110157;1264;18860;-64
2022/07/10 08:43:20;;;;;;;;;12.33;10.67;;;;;22.80;49.67;100683.66;109980;1264;19014;-64
2022/07/10 08:45:48;;;;;;;;;13.33;9.33;;;;;22.83;49.62;100692.08;110037;1264;19844;-60
2022/07/10 08:48:16;;;;;;;;;9.67;9.67;;;;;22.83;49.61;100688.59;110244;1265;18860;-63
2022/07/10 08:50:43;;;;;;;;;10.33;10.00;;;;;22.84;49.24;100686.84;110162;1264;27486;-63
2022/07/10 08:53:10;;;;;;;;;7.00;7.00;;;;;22.85;49.36;100688.20;110249;1264;19585;-66
2022/07/10 08:55:38;;;;;;;;;9.33;7.67;;;;;22.86;49.46;100686.36;110224;1264;19355;-66
2022/07/10 08:58:05;;;;;;;;;6.00;5.67;;;;;22.96;49.64;100685.77;110117;1264;18830;-64
2022/07/10 09:00:32;;;;;;;;;9.67;9.00;;;;;23.05;49.40;100688.48;110200;1264;19699;-63
2022/07/10 09:02:59;;;;;;;;;9.00;7.00;;;;;23.04;49.17;100686.34;110176;1265;18608;-64
2022/07/10 09:05:27;;;;;;;;;6.00;6.00;;;;;23.02;49.13;100685.35;110155;1265;22734;-67
2022/07/10 09:07:54;;;;;;;;;7.00;7.00;;;;;22.99;49.20;100689.09;110233;1265;20711;-64
2022/07/10 09:10:22;;;;;;;;;6.67;6.67;;;;;22.95;48.88;100685.52;110221;1264;21704;-65
2022/07/10 09:12:49;;;;;;;;;7.00;7.00;;;;;22.93;48.99;100688.09;110215;1264;21272;-64
2022/07/10 09:15:17;;;;;;;;;5.00;5.00;;;;;22.90;48.89;100685.59;110198;1264;21382;-67
2022/07/10 09:17:45;;;;;;;;;7.00;7.00;;;;;22.87;48.76;100686.26;110176;1265;18861;-62
2022/07/10 09:20:12;;;;;;;;;5.67;5.67;;;;;22.83;48.80;100684.92;110243;1265;20281;-64
2022/07/10 09:22:39;;;;;;;;;5.67;5.00;;;;;22.82;48.46;100677.59;110243;1265;20257;-66
2022/07/10 09:25:06;;;;;;;;;5.00;5.00;;;;;22.83;48.21;100679.88;110241;1264;20386;-64
2022/07/10 09:27:33;;;;;;;;;5.00;5.00;;;;;22.83;48.11;100672.94;110261;1264;19014;-65
2022/07/10 09:30:01;;;;;;;;;5.67;5.67;;;;;22.84;47.99;100672.12;110198;1265;19369;-65
2022/07/10 09:32:28;;;;;;;;;5.00;5.00;;;;;22.84;48.10;100674.77;110230;1264;18727;-64
2022/07/10 09:37:36;;;;;;;;;5.33;5.33;;;;;22.85;48.14;100675.78;110221;1264;19822;-64
2022/07/10 09:40:04;;;;;;;;;5.00;5.00;;;;;22.86;48.04;100673.69;110246;1265;18431;-65
2022/07/10 09:42:31;;;;;;;;;5.00;5.00;;;;;22.85;48.07;100670.79;110248;1264;18918;-65
2022/07/10 09:44:58;;;;;;;;;3.00;3.00;;;;;22.85;47.94;100669.90;110183;1265;19788;-64
2022/07/10 09:47:26;;;;;;;;;3.00;3.00;;;;;22.84;47.82;100670.05;110211;1264;18516;-65
2022/07/10 09:49:53;;;;;;;;;6.00;5.00;;;;;22.84;47.71;100665.02;110190;1266;19019;-64
2022/07/10 09:52:20;;;;;;;;;4.00;4.00;;;;;22.85;47.75;100673.55;110250;1264;19502;-62
2022/07/10 09:54:48;;;;;;;;;5.00;5.00;;;;;22.86;47.78;100669.99;110196;1265;18505;-64
2022/07/10 09:57:15;;;;;;;;;6.00;5.00;;;;;22.87;47.53;100672.80;110204;1264;18705;-65
2022/07/10 09:59:42;;;;;;;;;5.00;4.00;;;;;22.88;47.56;100671.60;110181;1265;19524;-62
2022/07/10 10:02:10;;;;;;;;;5.00;5.00;;;;;22.89;47.47;100668.25;110214;1265;21155;-62
2022/07/10 10:04:37;;;;;;;;;3.00;3.00;;;;;22.89;47.39;100667.77;110221;1264;18985;-63
2022/07/10 10:07:04;;;;;;;;;4.33;4.33;;;;;22.90;47.50;100675.76;110199;1265;19861;-66
2022/07/10 10:09:31;;;;;;;;;3.00;3.00;;;;;22.90;47.66;100681.52;110237;1264;18474;-62
2022/07/10 10:12:00;;;;;;;;;5.00;5.00;;;;;22.89;47.63;100688.64;110204;1264;18837;-65
2022/07/10 10:14:28;;;;;;;;;5.67;5.00;;;;;22.88;47.75;100681.82;110235;1265;19610;-66
2022/07/10 10:16:55;;;;;;;;;5.00;5.00;;;;;22.87;47.79;100688.31;110322;1264;18604;-65
2022/07/10 10:22:08;;;;;;;;;3.00;3.00;;;;;22.87;48.02;100695.23;110257;1264;19673;-65
2022/07/10 10:24:35;;;;;;;;;6.00;5.00;;;;;22.87;48.25;100698.48;110288;1264;20371;-65
2022/07/10 10:27:02;;;;;;;;;5.00;5.00;;;;;22.87;48.36;100696.30;110208;1265;18719;-65
2022/07/10 10:29:30;;;;;;;;;5.00;5.00;;;;;22.88;48.69;100696.23;110240;1264;19483;-66
2022/07/10 10:31:57;;;;;;;;;3.00;3.00;;;;;22.88;48.62;100693.83;110236;1265;20123;-63
2022/07/10 10:34:24;;;;;;;;;4.00;4.00;;;;;22.89;48.90;100689.56;110198;1265;18692;-66
2022/07/10 10:36:52;;;;;;;;;6.00;5.00;;;;;22.87;49.00;100688.23;110194;1264;19550;-66
2022/07/10 10:39:19;;;;;;;;;4.33;3.00;;;;;22.88;49.05;100683.20;110243;1265;18651;-65
2022/07/10 10:41:46;;;;;;;;;3.00;3.00;;;;;22.89;49.11;100682.05;110227;1265;22345;-65
2022/07/10 10:44:15;;;;;;;;;5.00;3.00;;;;;22.90;49.12;100683.61;110160;1265;21914;-64
2022/07/10 10:46:43;;;;;;;;;5.00;3.00;;;;;22.89;48.95;100681.25;110238;1265;18464;-64
2022/07/10 10:49:10;;;;;;;;;3.00;3.00;;;;;22.90;49.07;100681.43;110204;1265;21168;-65
2022/07/10 10:51:37;;;;;;;;;5.33;5.00;;;;;22.90;48.71;100680.13;110193;1264;19686;-66
2022/07/10 10:54:05;;;;;;;;;5.00;5.00;;;;;22.91;48.75;100680.67;110203;1265;18519;-65
2022/07/10 10:56:34;;;;;;;;;3.67;3.67;;;;;22.92;48.54;100685.48;110175;1264;18731;-65
2022/07/10 10:59:03;;;;;;;;;5.67;5.00;;;;;22.92;48.54;100687.32;110125;1264;19617;-65
2022/07/10 11:01:32;;;;;;;;;6.00;6.00;;;;;22.77;49.14;100677.20;110275;1265;20335;-64
2022/07/10 11:03:59;;;;;;;;;6.00;5.00;;;;;22.63;49.35;100680.77;110188;1264;18700;-62
2022/07/10 11:06:26;;;;;;;;;7.00;6.00;;;;;22.49;49.39;100680.45;110161;1265;19617;-65
2022/07/10 11:08:54;;;;;;;;;9.00;7.00;;;;;22.44;49.57;100672.91;110119;1264;18391;-63
2022/07/10 11:11:21;;;;;;;;;7.00;6.00;;;;;22.43;49.62;100671.90;110258;1264;19904;-64
2022/07/10 11:13:48;;;;;;;;;7.00;7.00;;;;;22.42;49.67;100676.98;110229;1264;19639;-65
2022/07/10 11:16:16;;;;;;;;;6.50;6.00;;;;;22.36;49.71;100674.73;110218;1264;22897;-64
2022/07/10 11:18:43;;;;;;;;;5.67;5.67;;;;;22.30;49.54;100673.68;110203;1264;29841;-64
2022/07/10 11:21:11;;;;;;;;;7.00;6.33;;;;;22.27;49.49;100675.15;110266;1264;19827;-63
2022/07/10 11:23:38;;;;;;;;;7.00;6.00;;;;;22.28;49.63;100674.46;110279;1264;18557;-64
2022/07/10 11:26:09;;;;;;;;;7.00;6.00;;;;;22.28;49.43;100669.41;110232;1265;22371;-64
2022/07/10 11:28:37;;;;;;;;;6.00;6.00;;;;;22.26;49.41;100667.08;110214;1264;19557;-65
2022/07/10 11:31:04;;;;;;;;;10.00;7.00;;;;;22.23;49.27;100664.80;110222;1265;18432;-66
2022/07/10 11:33:31;;;;;;;;;7.00;7.00;;;;;22.22;49.06;100662.39;110191;1265;18750;-66
2022/07/10 11:35:59;;;;;;;;;7.00;7.00;;;;;22.36;49.02;100659.86;110277;1264;19570;-65
2022/07/10 11:38:26;;;;;;;;;5.67;5.67;;;;;22.59;48.79;100659.54;110248;1265;18530;-64
2022/07/10 11:40:54;;;;;;;;;7.00;6.00;;;;;22.76;48.41;100659.73;110245;1264;23054;-63
2022/07/10 11:43:23;;;;;;;;;7.00;6.00;;;;;22.89;48.06;100662.56;110194;1264;21097;-65
2022/07/10 11:45:52;;;;;;;;;5.33;5.33;;;;;22.97;48.00;100663.13;110242;1264;18625;-65
2022/07/10 11:48:19;;;;;;;;;6.00;6.00;;;;;23.03;47.76;100661.09;110243;1264;22042;-65
2022/07/10 11:50:46;;;;;;;;;5.67;5.33;;;;;23.05;47.53;100662.66;110281;1264;21114;-64